createdAt,value
2019-02-12T00:00:59.427Z,87.30
2019-02-12T00:03:27.214Z,87.10
2019-02-12T00:05:54.912Z,86.80
2019-02-12T00:08:23.516Z,86.40
2019-02-12T00:10:51.225Z,86.60
2019-02-12T00:13:18.991Z,86.80
2019-02-12T00:15:46.612Z,86.40
2019-02-12T00:18:14.227Z,86.20
2019-02-12T00:20:41.843Z,86.60
2019-02-12T00:23:09.582Z,86.80
2019-02-12T00:25:37.253Z,87.10
2019-02-12T00:28:05.069Z,87.10
2019-02-12T00:30:32.760Z,87.10
2019-02-12T00:33:00.429Z,87.10
2019-02-12T00:35:28.085Z,86.60
2019-02-12T00:37:55.803Z,86.60
2019-02-12T00:40:23.525Z,86.60
2019-02-12T00:42:51.268Z,86.20
2019-02-12T00:45:18.959Z,86.00
2019-02-12T00:47:46.745Z,86.00
2019-02-12T00:50:14.486Z,85.50
2019-02-12T00:52:42.163Z,85.50
2019-02-12T00:55:09.774Z,85.30
2019-02-12T00:57:37.454Z,85.60
2019-02-12T01:00:06.979Z,85.80
2019-02-12T01:02:34.769Z,86.20
2019-02-12T01:05:04.451Z,86.00
2019-02-12T01:07:32.237Z,85.80
2019-02-12T01:09:59.858Z,85.80
2019-02-12T01:12:27.475Z,86.00
2019-02-12T01:14:55.211Z,86.00
2019-02-12T01:17:22.990Z,86.00
2019-02-12T01:19:50.615Z,86.40
2019-02-12T01:22:18.200Z,86.60
2019-02-12T01:24:45.910Z,86.90
2019-02-12T01:27:13.571Z,86.90
2019-02-12T01:29:41.286Z,86.80
2019-02-12T01:32:08.977Z,86.90
2019-02-12T01:34:36.677Z,86.90
2019-02-12T01:37:04.300Z,86.90
2019-02-12T01:39:31.981Z,86.90
2019-02-12T01:41:59.626Z,87.10
2019-02-12T01:44:27.330Z,86.80
2019-02-12T01:46:55.045Z,86.40
2019-02-12T01:49:22.785Z,86.20
2019-02-12T01:51:50.485Z,86.00
2019-02-12T01:54:18.097Z,85.80
2019-02-12T01:56:45.802Z,85.80
2019-02-12T01:59:13.496Z,85.80
2019-02-12T02:01:41.220Z,86.20
2019-02-12T02:04:08.807Z,86.80
2019-02-12T02:06:36.528Z,87.70
2019-02-12T02:09:05.457Z,88.40
2019-02-12T02:11:33.531Z,89.00
2019-02-12T02:14:01.235Z,89.60
2019-02-12T02:16:29.047Z,90.10
2019-02-12T02:18:56.639Z,90.20
2019-02-12T02:21:24.345Z,90.30
2019-02-12T02:23:52.109Z,90.50
2019-02-12T02:26:19.787Z,90.50
2019-02-12T02:28:47.532Z,90.20
2019-02-12T02:31:15.201Z,90.10
2019-02-12T02:33:42.810Z,89.90
2019-02-12T02:36:10.366Z,90.10
2019-02-12T02:38:37.826Z,90.10
2019-02-12T02:41:05.401Z,90.10
2019-02-12T02:43:32.946Z,90.10
2019-02-12T02:46:00.532Z,90.20
2019-02-12T02:48:28.049Z,90.30
2019-02-12T02:50:55.526Z,90.20
2019-02-12T02:53:22.997Z,90.30
2019-02-12T02:55:50.631Z,90.20
2019-02-12T02:58:18.198Z,90.20
2019-02-12T03:00:45.721Z,90.30
2019-02-12T03:03:13.203Z,90.20
2019-02-12T03:05:40.794Z,90.30
2019-02-12T03:08:08.370Z,90.30
2019-02-12T03:10:35.838Z,90.40
2019-02-12T03:13:03.361Z,90.40
2019-02-12T03:15:30.914Z,90.40
2019-02-12T03:17:58.389Z,90.40
2019-02-12T03:20:26.009Z,90.50
2019-02-12T03:22:53.562Z,90.40
2019-02-12T03:25:21.191Z,90.40
2019-02-12T03:27:48.621Z,90.20
2019-02-12T03:30:16.212Z,90.10
2019-02-12T03:32:43.827Z,90.10
2019-02-12T03:35:11.398Z,90.10
2019-02-12T03:37:38.837Z,89.90
2019-02-12T03:40:07.441Z,89.90
2019-02-12T03:42:34.898Z,89.40
2019-02-12T03:45:03.743Z,89.70
2019-02-12T03:47:31.144Z,89.40
2019-02-12T03:49:58.638Z,89.40
2019-02-12T03:52:26.112Z,88.80
2019-02-12T03:54:53.632Z,88.20
2019-02-12T03:57:21.168Z,87.90
2019-02-12T03:59:49.337Z,87.50
2019-02-12T04:02:17.166Z,87.50
2019-02-12T04:04:44.767Z,87.50
2019-02-12T04:07:12.293Z,87.90
2019-02-12T04:09:39.725Z,87.70
2019-02-12T04:12:07.287Z,87.90
2019-02-12T04:14:34.796Z,87.90
2019-02-12T04:17:02.427Z,87.90
2019-02-12T04:19:29.840Z,87.90
2019-02-12T04:21:57.421Z,88.10
2019-02-12T04:24:25.045Z,88.10
2019-02-12T04:26:52.606Z,88.10
2019-02-12T04:29:20.118Z,87.90
2019-02-12T04:31:47.765Z,87.90
2019-02-12T04:34:15.292Z,88.10
2019-02-12T04:36:42.920Z,88.40
2019-02-12T04:39:10.393Z,88.40
2019-02-12T04:41:37.957Z,88.20
2019-02-12T04:44:05.403Z,88.20
2019-02-12T04:46:32.894Z,88.20
2019-02-12T04:49:00.548Z,88.40
2019-02-12T04:51:28.023Z,88.40
2019-02-12T04:53:55.585Z,88.40
2019-02-12T04:56:23.067Z,88.60
2019-02-12T04:58:50.598Z,88.60
2019-02-12T05:01:18.085Z,88.40
2019-02-12T05:03:45.835Z,88.20
2019-02-12T05:06:13.357Z,88.10
2019-02-12T05:09:25.165Z,87.90
2019-02-12T05:11:55.119Z,87.70
2019-02-12T05:14:22.614Z,87.70
2019-02-12T05:16:51.146Z,87.50
2019-02-12T05:19:18.713Z,86.90
2019-02-12T05:21:46.165Z,86.90
2019-02-12T05:24:13.821Z,86.60
2019-02-12T05:26:41.294Z,86.80
2019-02-12T05:29:08.739Z,86.90
2019-02-12T05:31:36.392Z,86.90
2019-02-12T05:34:04.059Z,86.80
2019-02-12T05:36:31.707Z,86.60
2019-02-12T05:38:59.394Z,86.40
2019-02-12T05:41:26.968Z,86.40
2019-02-12T05:43:55.838Z,86.40
2019-02-12T05:46:24.423Z,86.00
2019-02-12T05:48:52.007Z,85.80
2019-02-12T05:51:26.630Z,85.80
2019-02-12T05:53:55.406Z,85.10
2019-02-12T05:56:23.267Z,85.10
2019-02-12T05:58:50.930Z,85.60
2019-02-12T06:01:18.961Z,85.60
2019-02-12T06:03:46.481Z,85.30
2019-02-12T06:06:13.917Z,85.60
2019-02-12T06:08:47.422Z,86.00
2019-02-12T06:11:15.189Z,86.00
2019-02-12T06:13:42.756Z,86.20
2019-02-12T06:16:10.429Z,85.80
2019-02-12T06:18:38.091Z,86.00
2019-02-12T06:21:05.670Z,85.60
2019-02-12T06:23:33.125Z,85.60
2019-02-12T06:26:00.817Z,85.80
2019-02-12T06:28:28.388Z,85.60
2019-02-12T06:30:55.915Z,85.30
2019-02-12T06:33:23.551Z,85.30
2019-02-12T06:35:51.275Z,85.10
2019-02-12T06:38:19.438Z,85.10
2019-02-12T06:40:48.246Z,85.30
2019-02-12T06:43:15.889Z,85.80
2019-02-12T06:45:43.391Z,86.20
2019-02-12T06:48:10.947Z,86.40
2019-02-12T06:50:38.578Z,86.60
2019-02-12T06:53:12.391Z,86.80
2019-02-12T06:55:35.525Z,86.40
2019-02-12T06:58:03.614Z,86.40
2019-02-12T07:00:31.101Z,86.40
2019-02-12T07:03:12.602Z,86.40
2019-02-12T07:05:46.703Z,86.40
2019-02-12T07:08:53.583Z,86.60
2019-02-12T07:12:33.850Z,86.40
2019-02-12T07:15:15.021Z,86.60
2019-02-12T07:18:12.458Z,86.90
2019-02-12T07:21:07.385Z,87.10
2019-02-12T07:24:13.527Z,87.10
2019-02-12T07:27:09.133Z,86.60
2019-02-12T07:30:23.481Z,86.00
2019-02-12T07:33:47.993Z,85.50
2019-02-12T07:36:54.990Z,84.90
2019-02-12T07:40:01.172Z,84.70
2019-02-12T07:43:19.393Z,84.10
2019-02-12T07:46:19.694Z,84.50
2019-02-12T07:49:06.683Z,83.20
2019-02-12T07:52:05.556Z,83.40
2019-02-12T07:55:16.152Z,83.00
2019-02-12T07:58:15.789Z,82.70
2019-02-12T08:01:17.078Z,82.30
2019-02-12T08:04:29.365Z,81.90
2019-02-12T08:07:08.397Z,81.50
2019-02-12T08:10:25.099Z,80.80
2019-02-12T08:13:49.436Z,81.00
2019-02-12T08:17:04.673Z,80.80
2019-02-12T08:20:24.919Z,79.70
2019-02-12T08:23:16.416Z,79.50
2019-02-12T08:26:36.572Z,78.70
2019-02-12T08:29:51.851Z,78.60
2019-02-12T08:32:44.586Z,78.40
2019-02-12T08:35:56.737Z,78.60
2019-02-12T08:38:28.974Z,78.00
2019-02-12T08:41:37.662Z,76.30
2019-02-12T08:44:27.132Z,75.90
2019-02-12T08:47:37.071Z,75.00
2019-02-12T08:50:20.998Z,74.10
2019-02-12T08:53:10.760Z,70.40
2019-02-12T08:56:03.718Z,68.50
2019-02-12T08:59:11.322Z,66.10
2019-02-12T09:02:21.032Z,63.80
2019-02-12T09:05:15.039Z,59.60
2019-02-12T09:08:32.629Z,57.00
2019-02-12T09:11:35.103Z,51.70
2019-02-12T09:14:16.993Z,49.60
2019-02-12T09:17:16.090Z,47.00
2019-02-12T09:20:39.439Z,44.90
2019-02-12T09:23:43.268Z,42.70
2019-02-12T09:26:40.174Z,40.00
2019-02-12T09:29:21.330Z,37.30
2019-02-12T09:32:34.386Z,37.40
2019-02-12T09:35:42.428Z,37.30
2019-02-12T09:39:08.095Z,38.00
2019-02-12T09:42:01.729Z,39.50
2019-02-12T09:45:03.004Z,41.10
2019-02-12T09:48:25.681Z,41.20
2019-02-12T09:51:21.464Z,41.20
2019-02-12T09:54:08.684Z,43.50
2019-02-12T09:57:07.936Z,44.70
2019-02-12T09:59:47.661Z,44.10
2019-02-12T10:02:57.187Z,44.70
2019-02-12T10:05:47.026Z,45.50
2019-02-12T10:08:54.205Z,47.90
2019-02-12T10:11:53.523Z,49.40
2019-02-12T10:14:44.280Z,51.90
2019-02-12T10:17:33.902Z,52.20
2019-02-12T10:20:43.341Z,52.90
2019-02-12T10:23:30.741Z,52.60
2019-02-12T10:26:05.689Z,54.20
2019-02-12T10:29:23.089Z,54.90
2019-02-12T10:31:49.693Z,54.00
2019-02-12T10:34:17.505Z,54.80
2019-02-12T10:36:45.346Z,54.30
2019-02-12T10:39:14.262Z,54.30
2019-02-12T10:41:41.930Z,53.90
2019-02-12T10:44:09.645Z,52.30
2019-02-12T10:46:37.500Z,52.00
2019-02-12T10:49:05.310Z,53.20
2019-02-12T10:51:33.135Z,53.50
2019-02-12T10:54:00.927Z,53.90
2019-02-12T10:56:28.650Z,53.20
2019-02-12T10:58:56.339Z,52.60
2019-02-12T11:01:23.996Z,52.60
2019-02-12T11:03:52.833Z,53.50
2019-02-12T11:06:20.522Z,53.90
2019-02-12T11:08:48.214Z,52.50
2019-02-12T11:11:16.139Z,52.50
2019-02-12T11:13:43.857Z,53.20
2019-02-12T11:16:11.515Z,53.20
2019-02-12T11:18:39.374Z,54.30
2019-02-12T11:21:11.900Z,52.80
2019-02-12T11:23:36.988Z,52.00
2019-02-12T11:26:04.721Z,51.30
2019-02-12T11:28:32.443Z,50.00
2019-02-12T11:31:00.099Z,49.10
2019-02-12T11:33:27.807Z,47.80
2019-02-12T11:35:55.538Z,46.80
2019-02-12T11:38:23.325Z,46.80
2019-02-12T11:40:51.262Z,46.70
2019-02-12T11:43:19.063Z,46.50
2019-02-12T11:45:46.911Z,45.30
2019-02-12T11:48:14.761Z,44.30
2019-02-12T11:50:42.489Z,44.60
2019-02-12T11:53:10.170Z,45.30
2019-02-12T11:55:37.860Z,45.60
2019-02-12T11:58:05.578Z,44.10
2019-02-12T12:00:42.423Z,45.20
2019-02-12T12:03:10.551Z,45.90
2019-02-12T12:05:38.230Z,46.80
2019-02-12T12:08:05.985Z,48.20
2019-02-12T12:10:33.806Z,47.50
2019-02-12T12:13:01.515Z,46.80
2019-02-12T12:15:29.198Z,46.80
2019-02-12T12:17:56.910Z,47.30
2019-02-12T12:20:24.623Z,46.10
2019-02-12T12:22:52.457Z,46.20
2019-02-12T12:25:20.304Z,45.60
2019-02-12T12:27:48.004Z,45.00
2019-02-12T12:30:15.775Z,44.90
2019-02-12T12:32:43.559Z,44.00
2019-02-12T12:35:11.312Z,44.00
2019-02-12T12:37:40.090Z,44.90
2019-02-12T12:40:07.883Z,43.60
2019-02-12T12:42:35.698Z,42.60
2019-02-12T12:45:04.479Z,41.20
2019-02-12T12:47:32.389Z,41.10
2019-02-12T12:50:00.296Z,40.50
2019-02-12T12:52:29.056Z,40.50
2019-02-12T12:54:59.881Z,41.40
2019-02-12T12:57:26.310Z,41.50
2019-02-12T12:59:55.214Z,41.80
2019-02-12T13:02:23.016Z,42.90
2019-02-12T13:04:50.849Z,44.00
2019-02-12T13:07:18.774Z,43.20
2019-02-12T13:09:46.536Z,42.10
2019-02-12T13:12:14.306Z,40.30
2019-02-12T13:14:42.094Z,40.50
2019-02-12T13:17:11.516Z,40.00
2019-02-12T13:19:39.440Z,39.40
2019-02-12T13:22:07.113Z,40.00
2019-02-12T13:24:34.948Z,41.20
2019-02-12T13:27:02.999Z,42.30
2019-02-12T13:29:31.782Z,40.50
2019-02-12T13:31:59.531Z,41.50
2019-02-12T13:34:27.285Z,40.30
2019-02-12T13:36:55.120Z,40.50
2019-02-12T13:39:37.259Z,39.40
2019-02-12T13:42:04.987Z,39.70
2019-02-12T13:44:32.816Z,40.60
2019-02-12T13:47:00.663Z,40.00
2019-02-12T13:49:28.437Z,39.50
2019-02-12T13:51:56.208Z,39.80
2019-02-12T13:54:24.082Z,39.70
2019-02-12T13:56:51.827Z,40.90
2019-02-12T13:59:20.480Z,40.50
2019-02-12T14:01:48.227Z,41.10
2019-02-12T14:04:15.965Z,41.40
2019-02-12T14:06:43.819Z,42.60
2019-02-12T14:09:11.604Z,42.40
2019-02-12T14:11:39.459Z,43.30
2019-02-12T14:14:07.262Z,43.20
2019-02-12T14:16:35.156Z,44.60
2019-02-12T14:19:03.870Z,44.90
2019-02-12T14:21:31.753Z,46.10
2019-02-12T14:23:59.528Z,46.20
2019-02-12T14:26:27.261Z,46.70
2019-02-12T14:28:55.342Z,46.70
2019-02-12T14:31:23.190Z,45.50
2019-02-12T14:33:50.934Z,45.00
2019-02-12T14:36:18.693Z,45.30
2019-02-12T14:38:46.504Z,44.90
2019-02-12T14:41:14.300Z,42.90
2019-02-12T14:43:42.207Z,41.50
2019-02-12T14:46:12.266Z,39.40
2019-02-12T14:48:40.065Z,35.30
2019-02-12T14:51:07.949Z,33.70
2019-02-12T14:53:35.726Z,32.50
2019-02-12T14:56:10.978Z,31.90
2019-02-12T14:58:33.168Z,33.30
2019-02-12T15:01:01.163Z,33.70
2019-02-12T15:03:29.125Z,34.80
2019-02-12T15:05:57.062Z,35.70
2019-02-12T15:08:24.899Z,37.10
2019-02-12T15:10:53.839Z,38.00
2019-02-12T15:13:21.690Z,37.70
2019-02-12T15:15:49.446Z,38.30
2019-02-12T15:18:17.313Z,38.80
2019-02-12T15:20:45.443Z,39.40
2019-02-12T15:23:13.256Z,39.50
2019-02-12T15:25:42.198Z,40.80
2019-02-12T15:28:10.032Z,41.20
2019-02-12T15:30:37.944Z,41.40
2019-02-12T15:33:05.637Z,41.50
2019-02-12T15:35:33.324Z,41.10
2019-02-12T15:38:00.922Z,41.80
2019-02-12T15:40:28.812Z,42.10
2019-02-12T15:42:56.546Z,42.60
2019-02-12T15:45:24.206Z,43.20
2019-02-12T15:47:52.107Z,42.70
2019-02-12T15:50:19.948Z,42.70
2019-02-12T15:52:47.742Z,43.30
2019-02-12T15:55:15.510Z,43.60
2019-02-12T15:57:45.791Z,43.80
2019-02-12T16:00:15.665Z,44.60
2019-02-12T16:02:43.849Z,45.50
2019-02-12T16:05:12.449Z,46.50
2019-02-12T16:07:40.215Z,46.80
2019-02-12T16:10:10.544Z,49.30
2019-02-12T16:12:38.274Z,49.40
2019-02-12T16:15:08.482Z,49.10
2019-02-12T16:17:37.438Z,49.00
2019-02-12T16:20:10.139Z,49.10
2019-02-12T16:22:37.998Z,49.30
2019-02-12T16:25:06.109Z,50.30
2019-02-12T16:27:33.783Z,50.50
2019-02-12T16:30:01.637Z,50.70
2019-02-12T16:32:29.523Z,51.30
2019-02-12T16:34:57.284Z,51.60
2019-02-12T16:37:25.044Z,51.70
2019-02-12T16:39:52.764Z,51.90
2019-02-12T16:42:20.584Z,52.20
2019-02-12T16:44:48.353Z,52.50
2019-02-12T16:47:17.358Z,52.60
2019-02-12T16:49:45.109Z,52.90
2019-02-12T16:52:20.500Z,53.10
2019-02-12T16:54:42.514Z,53.50
2019-02-12T16:57:11.291Z,53.40
2019-02-12T16:59:40.103Z,54.00
2019-02-12T17:02:07.902Z,54.20
2019-02-12T17:04:35.778Z,54.50
2019-02-12T17:07:03.562Z,54.50
2019-02-12T17:09:31.402Z,54.80
2019-02-12T17:11:59.208Z,54.80
2019-02-12T17:14:27.626Z,54.80
2019-02-12T17:16:55.415Z,55.10
2019-02-12T17:19:23.127Z,55.10
2019-02-12T17:21:50.834Z,55.20
2019-02-12T17:24:18.622Z,55.50
2019-02-12T17:26:46.335Z,56.00
2019-02-12T17:29:14.448Z,56.40
2019-02-12T17:31:42.266Z,57.00
2019-02-12T17:34:10.130Z,56.90
2019-02-12T17:36:37.859Z,56.90
2019-02-12T17:39:05.882Z,57.40
2019-02-12T17:41:35.542Z,57.00
2019-02-12T17:44:03.385Z,57.50
2019-02-12T17:46:31.219Z,57.80
2019-02-12T17:48:59.201Z,57.80
2019-02-12T17:51:27.647Z,58.10
2019-02-12T17:53:55.577Z,58.60
2019-02-12T17:56:24.972Z,58.40
2019-02-12T17:58:52.939Z,58.40
2019-02-12T18:01:20.705Z,58.40
2019-02-12T18:03:48.907Z,58.40
2019-02-12T18:06:16.639Z,58.10
2019-02-12T18:08:44.347Z,58.00
2019-02-12T18:11:12.319Z,58.30
2019-02-12T18:13:40.102Z,59.30
2019-02-12T18:16:08.427Z,60.10
2019-02-12T18:18:36.268Z,61.00
2019-02-12T18:21:05.224Z,61.00
2019-02-12T18:23:33.156Z,61.00
2019-02-12T18:26:01.127Z,61.40
2019-02-12T18:28:28.931Z,61.40
2019-02-12T18:30:56.811Z,61.60
2019-02-12T18:33:24.703Z,62.20
2019-02-12T18:35:52.807Z,62.30
2019-02-12T18:38:20.750Z,62.20
2019-02-12T18:40:48.464Z,62.30
2019-02-12T18:43:16.216Z,62.70
2019-02-12T18:45:43.984Z,62.20
2019-02-12T18:48:11.879Z,62.20
2019-02-12T18:50:39.722Z,62.00
2019-02-12T18:53:07.464Z,62.20
2019-02-12T18:55:35.489Z,61.60
2019-02-12T18:58:03.448Z,62.00
2019-02-12T19:00:33.030Z,63.30
2019-02-12T19:03:00.854Z,63.30
2019-02-12T19:05:28.805Z,64.20
2019-02-12T19:07:56.794Z,63.10
2019-02-12T19:10:24.708Z,62.90
2019-02-12T19:12:52.550Z,63.10
2019-02-12T19:15:20.432Z,63.80
2019-02-12T19:17:55.585Z,65.30
2019-02-12T19:20:23.547Z,65.90
2019-02-12T19:22:51.343Z,63.80
2019-02-12T19:25:19.307Z,65.00
2019-02-12T19:27:47.153Z,64.40
2019-02-12T19:30:16.235Z,64.40
2019-02-12T19:32:44.282Z,63.80
2019-02-12T19:35:12.140Z,64.20
2019-02-12T19:37:39.891Z,64.60
2019-02-12T19:40:07.840Z,65.30
2019-02-12T19:42:35.606Z,67.00
2019-02-12T19:45:04.404Z,67.20
2019-02-12T19:47:32.357Z,67.20
2019-02-12T19:50:00.097Z,67.70
2019-02-12T19:52:27.888Z,67.90
2019-02-12T19:54:55.815Z,68.30
2019-02-12T19:57:23.533Z,68.70
2019-02-12T19:59:51.360Z,68.50
2019-02-12T20:02:19.157Z,68.30
2019-02-12T20:04:47.231Z,67.70
2019-02-12T20:07:15.032Z,67.90
2019-02-12T20:09:42.687Z,67.00
2019-02-12T20:12:10.576Z,66.80
2019-02-12T20:14:38.443Z,67.20
2019-02-12T20:17:06.228Z,66.80
2019-02-12T20:19:34.347Z,67.40
2019-02-12T20:22:02.572Z,67.00
2019-02-12T20:24:30.349Z,67.20
2019-02-12T20:27:06.198Z,67.40
2019-02-12T20:29:27.875Z,68.50
2019-02-12T20:31:55.869Z,68.90
2019-02-12T20:34:23.619Z,68.90
2019-02-12T20:36:51.481Z,68.90
2019-02-12T20:39:20.816Z,69.60
2019-02-12T20:41:48.843Z,69.60
2019-02-12T20:44:16.540Z,70.00
2019-02-12T20:46:45.295Z,70.40
2019-02-12T20:49:13.201Z,70.90
2019-02-12T20:51:41.054Z,70.90
2019-02-12T20:54:08.691Z,70.90
2019-02-12T20:56:36.712Z,71.30
2019-02-12T20:59:04.547Z,71.50
2019-02-12T21:01:34.443Z,71.50
2019-02-12T21:04:02.654Z,71.30
2019-02-12T21:06:30.605Z,70.90
2019-02-12T21:08:58.552Z,70.50
2019-02-12T21:11:26.449Z,69.80
2019-02-12T21:13:54.539Z,69.80
2019-02-12T21:16:22.502Z,69.80
2019-02-12T21:18:50.308Z,70.70
2019-02-12T21:21:18.772Z,71.10
2019-02-12T21:23:46.642Z,71.70
2019-02-12T21:26:14.412Z,71.70
2019-02-12T21:28:42.318Z,71.10
2019-02-12T21:31:11.321Z,71.50
2019-02-12T21:33:39.784Z,71.50
2019-02-12T21:36:08.878Z,71.70
2019-02-12T21:38:37.031Z,72.00
2019-02-12T21:41:06.079Z,72.80
2019-02-12T21:43:33.915Z,73.30
2019-02-12T21:46:01.662Z,73.20
2019-02-12T21:48:29.847Z,73.00
2019-02-12T21:50:57.930Z,72.60
2019-02-12T21:53:25.857Z,72.80
2019-02-12T21:55:53.750Z,73.20
2019-02-12T21:58:22.347Z,73.30
2019-02-12T22:00:50.487Z,73.50
2019-02-12T22:03:18.664Z,72.40
2019-02-12T22:05:46.610Z,72.20
2019-02-12T22:08:14.730Z,72.00
2019-02-12T22:10:46.325Z,72.40
2019-02-12T22:13:12.541Z,72.80
2019-02-12T22:15:40.686Z,72.80
2019-02-12T22:18:08.984Z,73.00
2019-02-12T22:20:36.970Z,73.00
2019-02-12T22:23:05.039Z,73.00
2019-02-12T22:25:34.660Z,73.20
2019-02-12T22:28:02.581Z,73.20
2019-02-12T22:30:30.179Z,73.00
2019-02-12T22:32:57.764Z,73.70
2019-02-12T22:35:25.370Z,73.70
2019-02-12T22:37:52.952Z,73.70
2019-02-12T22:40:20.618Z,73.50
2019-02-12T22:42:48.195Z,73.50
2019-02-12T22:45:16.889Z,74.10
2019-02-12T22:47:44.685Z,74.30
2019-02-12T22:50:13.322Z,74.50
2019-02-12T22:52:41.236Z,75.00
2019-02-12T22:55:09.390Z,75.40
2019-02-12T22:57:37.096Z,75.40
2019-02-12T23:00:14.823Z,75.90
2019-02-12T23:02:44.328Z,76.50
2019-02-12T23:05:11.910Z,76.90
2019-02-12T23:07:39.697Z,77.60
2019-02-12T23:10:07.504Z,77.40
2019-02-12T23:12:35.331Z,77.60
2019-02-12T23:15:03.904Z,77.80
2019-02-12T23:17:31.875Z,77.60
2019-02-12T23:19:59.436Z,78.00
2019-02-12T23:22:26.918Z,78.90
2019-02-12T23:24:54.431Z,79.30
2019-02-12T23:27:21.921Z,79.70
2019-02-12T23:29:50.330Z,80.00
2019-02-12T23:32:17.841Z,79.90
2019-02-12T23:34:45.390Z,79.50
2019-02-12T23:37:12.866Z,79.50
2019-02-12T23:39:40.301Z,80.00
2019-02-12T23:42:07.762Z,80.20
2019-02-12T23:44:35.662Z,80.20
2019-02-12T23:47:03.215Z,80.80
2019-02-12T23:49:30.672Z,80.80
2019-02-12T23:51:58.174Z,80.80
2019-02-12T23:54:25.678Z,80.40
2019-02-12T23:56:53.178Z,80.60
2019-02-12T23:59:20.715Z,80.80
